createdAt,value
2022-10-23T00:01:18.125Z,18.40
2022-10-23T00:03:45.868Z,18.08
2022-10-23T00:06:13.757Z,18.67
2022-10-23T00:08:41.344Z,15.85
2022-10-23T00:11:09.744Z,20.23
2022-10-23T00:13:37.085Z,17.95
2022-10-23T00:16:04.344Z,18.40
2022-10-23T00:18:31.371Z,19.23
2022-10-23T00:20:58.601Z,21.15
2022-10-23T00:23:26.000Z,15.43
2022-10-23T00:25:52.996Z,22.00
2022-10-23T00:28:20.209Z,18.40
2022-10-23T00:30:47.239Z,18.25
2022-10-23T00:33:16.116Z,17.92
2022-10-23T00:35:43.307Z,18.57
2022-10-23T00:38:12.517Z,21.92
2022-10-23T00:40:42.335Z,21.23
2022-10-23T00:43:24.860Z,21.63
2022-10-23T00:45:52.068Z,17.85
2022-10-23T00:48:19.754Z,20.77
2022-10-23T00:50:47.768Z,20.40
2022-10-23T00:53:16.651Z,20.20
2022-10-23T00:55:46.779Z,18.60
2022-10-23T00:58:17.181Z,22.23
2022-10-23T01:00:44.396Z,28.40
2022-10-23T01:03:11.558Z,15.10
2022-10-23T01:06:15.874Z,24.92
2022-10-23T01:08:51.460Z,16.33
2022-10-23T01:11:37.750Z,23.42
2022-10-23T01:14:22.654Z,17.83
2022-10-23T01:17:01.797Z,18.05
2022-10-23T01:20:14.553Z,16.95
2022-10-23T01:23:12.244Z,17.60
2022-10-23T01:26:07.239Z,22.92
2022-10-23T01:28:48.434Z,20.50
2022-10-23T01:31:20.631Z,21.60
2022-10-23T01:33:52.491Z,19.90
2022-10-23T01:36:28.194Z,18.15
2022-10-23T01:39:07.926Z,20.30
2022-10-23T01:41:35.475Z,23.87
2022-10-23T01:44:13.896Z,14.82
2022-10-23T01:46:43.731Z,15.02
2022-10-23T01:49:14.010Z,20.42
2022-10-23T01:51:46.565Z,18.48
2022-10-23T01:54:16.429Z,17.23
2022-10-23T01:56:48.949Z,19.88
2022-10-23T01:59:22.862Z,18.52
2022-10-23T02:01:52.460Z,20.35
2022-10-23T02:04:28.691Z,16.42
2022-10-23T02:06:55.689Z,16.83
2022-10-23T02:09:22.693Z,20.80
2022-10-23T02:12:07.262Z,17.90
2022-10-23T02:14:58.704Z,19.15
2022-10-23T02:17:47.468Z,18.67
2022-10-23T02:20:41.187Z,18.83
2022-10-23T02:23:29.282Z,17.85
2022-10-23T02:26:03.706Z,16.48
2022-10-23T02:28:45.364Z,21.67
2022-10-23T02:31:16.056Z,25.85
2022-10-23T02:33:44.911Z,17.53
2022-10-23T02:36:12.682Z,21.23
2022-10-23T02:38:42.420Z,17.40
2022-10-23T02:41:33.462Z,16.95
2022-10-23T02:44:06.892Z,20.88
2022-10-23T02:47:10.424Z,20.77
2022-10-23T02:49:53.840Z,20.95
2022-10-23T02:52:21.115Z,19.27
2022-10-23T02:55:16.505Z,19.90
2022-10-23T02:58:14.682Z,19.75
2022-10-23T03:00:49.621Z,18.33
2022-10-23T03:03:29.916Z,22.88
2022-10-23T03:05:57.335Z,17.90
2022-10-23T03:08:25.387Z,17.80
2022-10-23T03:10:52.716Z,21.48
2022-10-23T03:13:21.577Z,27.37
2022-10-23T03:15:48.796Z,21.63
2022-10-23T03:18:15.638Z,20.48
2022-10-23T03:20:47.851Z,21.98
2022-10-23T03:23:15.493Z,19.27
2022-10-23T03:25:43.475Z,19.73
2022-10-23T03:28:22.528Z,18.45
2022-10-23T03:30:49.536Z,22.75
2022-10-23T03:33:16.411Z,18.58
2022-10-23T03:35:43.617Z,19.13
2022-10-23T03:38:15.408Z,19.80
2022-10-23T03:40:43.228Z,14.55
2022-10-23T03:43:12.631Z,17.73
2022-10-23T03:45:39.988Z,16.30
2022-10-23T03:48:07.735Z,17.77
2022-10-23T03:50:35.922Z,17.93
2022-10-23T03:53:03.203Z,18.33
2022-10-23T03:55:30.481Z,19.27
2022-10-23T03:57:57.679Z,23.40
2022-10-23T04:00:24.914Z,15.98
2022-10-23T04:02:51.730Z,15.13
2022-10-23T04:05:18.957Z,16.45
2022-10-23T04:07:54.477Z,18.05
2022-10-23T04:10:21.885Z,17.27
2022-10-23T04:12:49.067Z,16.45
2022-10-23T04:15:16.480Z,20.67
2022-10-23T04:17:46.412Z,20.40
2022-10-23T04:20:13.256Z,20.08
2022-10-23T04:22:40.380Z,14.52
2022-10-23T04:25:07.880Z,14.85
2022-10-23T04:27:35.210Z,15.53
2022-10-23T04:30:03.635Z,16.20
2022-10-23T04:32:31.380Z,16.48
2022-10-23T04:34:59.277Z,16.67
2022-10-23T04:37:26.462Z,19.42
2022-10-23T04:39:53.529Z,18.93
2022-10-23T04:42:20.877Z,12.98
2022-10-23T04:44:48.153Z,15.05
2022-10-23T04:47:15.229Z,17.83
2022-10-23T04:49:59.344Z,12.52
2022-10-23T04:52:57.037Z,14.47
2022-10-23T04:55:49.785Z,17.13
2022-10-23T04:58:36.709Z,17.23
2022-10-23T05:01:03.715Z,16.80
2022-10-23T05:03:30.809Z,15.13
2022-10-23T05:05:59.100Z,12.47
2022-10-23T05:08:40.754Z,20.00
2022-10-23T05:11:27.784Z,15.63
2022-10-23T05:13:55.228Z,14.18
2022-10-23T05:16:35.798Z,14.27
2022-10-23T05:19:03.997Z,13.77
2022-10-23T05:21:34.633Z,15.93
2022-10-23T05:24:03.026Z,13.30
2022-10-23T05:26:32.013Z,15.20
2022-10-23T05:29:04.605Z,15.40
2022-10-23T05:31:32.768Z,14.10
2022-10-23T05:34:07.693Z,16.33
2022-10-23T05:36:41.542Z,13.00
2022-10-23T05:39:08.793Z,12.30
2022-10-23T05:41:36.423Z,12.90
2022-10-23T05:44:03.777Z,11.57
2022-10-23T05:46:49.210Z,9.80
2022-10-23T05:49:28.067Z,13.10
2022-10-23T05:52:14.156Z,10.95
2022-10-23T05:54:51.891Z,12.65
2022-10-23T05:57:54.407Z,10.63
2022-10-23T06:00:34.528Z,17.02
2022-10-23T06:03:21.497Z,13.70
2022-10-23T06:05:52.366Z,13.73
2022-10-23T06:08:24.712Z,14.80
2022-10-23T06:10:52.098Z,9.57
2022-10-23T06:13:20.032Z,11.50
2022-10-23T06:15:47.389Z,10.02
2022-10-23T06:18:25.405Z,29.17
2022-10-23T06:21:01.373Z,18.25
2022-10-23T06:23:34.561Z,19.80
2022-10-23T06:26:20.695Z,11.70
2022-10-23T06:28:58.637Z,14.68
2022-10-23T06:31:28.295Z,16.70
2022-10-23T06:33:58.615Z,15.90
2022-10-23T06:36:26.952Z,15.63
2022-10-23T06:41:50.937Z,23.40
2022-10-23T06:44:38.265Z,12.55
2022-10-23T06:47:14.273Z,20.00
2022-10-23T06:50:11.716Z,14.87
2022-10-23T06:52:46.977Z,15.43
2022-10-23T06:55:16.875Z,12.95
2022-10-23T06:57:44.059Z,15.05
2022-10-23T07:00:12.036Z,14.32
2022-10-23T07:02:50.048Z,10.40
2022-10-23T07:05:17.727Z,13.10
2022-10-23T07:07:45.274Z,12.57
2022-10-23T07:10:15.891Z,13.93
2022-10-23T07:12:51.126Z,14.82
2022-10-23T07:15:37.367Z,15.40
2022-10-23T07:18:14.369Z,14.48
2022-10-23T07:21:00.398Z,12.05
2022-10-23T07:23:29.402Z,12.25
2022-10-23T07:25:56.911Z,13.63
2022-10-23T07:28:24.149Z,16.07
2022-10-23T07:30:59.661Z,17.27
2022-10-23T07:33:38.197Z,15.77
2022-10-23T07:36:14.268Z,14.27
2022-10-23T07:38:41.442Z,16.98
2022-10-23T07:41:12.326Z,17.77
2022-10-23T07:43:39.796Z,11.48
2022-10-23T07:46:09.700Z,12.98
2022-10-23T07:48:40.185Z,13.50
2022-10-23T07:51:12.368Z,16.90
2022-10-23T07:53:45.980Z,10.03
2022-10-23T07:56:31.941Z,11.65
2022-10-23T07:59:17.845Z,10.93
2022-10-23T08:01:52.682Z,13.00
2022-10-23T08:04:25.228Z,11.45
2022-10-23T08:06:58.411Z,12.50
2022-10-23T08:09:26.440Z,10.88
2022-10-23T08:11:53.552Z,12.55
2022-10-23T08:14:22.688Z,13.65
2022-10-23T08:16:50.312Z,12.52
2022-10-23T08:19:17.585Z,15.20
2022-10-23T08:21:46.273Z,11.43
2022-10-23T08:24:14.581Z,11.60
2022-10-23T08:26:44.280Z,10.27
2022-10-23T08:29:12.566Z,10.90
2022-10-23T08:31:40.109Z,11.87
2022-10-23T08:34:24.816Z,11.20
2022-10-23T08:36:53.289Z,10.45
2022-10-23T08:39:20.272Z,11.05
2022-10-23T08:42:17.204Z,12.50
2022-10-23T08:44:52.021Z,12.67
2022-10-23T08:47:31.137Z,10.38
2022-10-23T08:50:12.174Z,11.32
2022-10-23T08:52:39.597Z,12.10
2022-10-23T08:55:12.278Z,8.90
2022-10-23T08:58:04.140Z,10.53
2022-10-23T09:00:31.393Z,8.75
2022-10-23T09:03:02.876Z,12.52
2022-10-23T09:05:57.056Z,11.32
2022-10-23T09:08:54.553Z,8.82
2022-10-23T09:11:49.937Z,11.43
2022-10-23T09:14:41.926Z,8.98
2022-10-23T09:17:30.505Z,7.93
2022-10-23T09:20:06.105Z,10.10
2022-10-23T09:22:33.721Z,10.75
2022-10-23T09:25:00.523Z,12.13
2022-10-23T09:27:27.849Z,13.18
2022-10-23T09:29:55.973Z,9.05
2022-10-23T09:32:37.035Z,7.60
2022-10-23T09:35:05.712Z,11.57
2022-10-23T09:37:35.883Z,13.23
2022-10-23T09:40:11.857Z,10.43
2022-10-23T09:42:39.560Z,10.52
2022-10-23T09:45:25.535Z,11.52
2022-10-23T09:48:14.383Z,9.10
2022-10-23T09:50:53.788Z,8.57
2022-10-23T09:53:40.155Z,12.00
2022-10-23T09:56:24.831Z,8.55
2022-10-23T09:59:10.852Z,10.07
2022-10-23T10:01:50.585Z,11.88
2022-10-23T10:04:41.337Z,11.77
2022-10-23T10:07:24.973Z,11.52
2022-10-23T10:09:54.329Z,11.80
2022-10-23T10:12:29.940Z,8.50
2022-10-23T10:15:20.335Z,9.50
2022-10-23T10:18:06.034Z,12.60
2022-10-23T10:20:45.923Z,9.68
2022-10-23T10:23:22.351Z,9.27
2022-10-23T10:26:14.032Z,11.75
2022-10-23T10:28:58.777Z,11.45
2022-10-23T10:31:53.218Z,7.80
2022-10-23T10:34:33.654Z,11.48
2022-10-23T10:37:26.770Z,7.90
2022-10-23T10:40:22.308Z,9.38
2022-10-23T10:42:58.601Z,10.50
2022-10-23T10:46:04.464Z,7.60
2022-10-23T10:48:55.460Z,9.48
2022-10-23T10:52:03.525Z,9.15
2022-10-23T10:54:30.724Z,10.00
2022-10-23T10:57:00.169Z,7.45
2022-10-23T10:59:36.138Z,7.82
2022-10-23T11:02:28.603Z,16.42
2022-10-23T11:05:33.321Z,13.77
2022-10-23T11:08:07.542Z,7.72
2022-10-23T11:10:39.140Z,9.15
2022-10-23T11:13:06.428Z,8.27
2022-10-23T11:15:42.649Z,10.95
2022-10-23T11:18:21.126Z,7.07
2022-10-23T11:20:59.164Z,8.60
2022-10-23T11:23:50.155Z,7.75
2022-10-23T11:26:35.431Z,5.90
2022-10-23T11:29:30.508Z,9.07
2022-10-23T11:32:29.224Z,9.05
2022-10-23T11:35:16.449Z,9.68
2022-10-23T11:37:43.905Z,6.93
2022-10-23T11:40:11.276Z,6.63
2022-10-23T11:42:41.120Z,7.28
2022-10-23T11:45:31.173Z,10.88
2022-10-23T11:48:19.705Z,8.50
2022-10-23T11:50:46.439Z,7.90
2022-10-23T11:53:28.188Z,9.75
2022-10-23T11:56:06.657Z,8.75
2022-10-23T11:58:56.518Z,5.57
2022-10-23T12:01:24.377Z,6.68
2022-10-23T12:03:57.084Z,11.68
2022-10-23T12:06:28.932Z,8.65
2022-10-23T12:09:01.293Z,7.28
2022-10-23T12:11:42.150Z,9.13
2022-10-23T12:14:32.870Z,9.27
2022-10-23T12:17:00.443Z,8.50
2022-10-23T12:19:30.176Z,7.63
2022-10-23T12:22:01.982Z,9.27
2022-10-23T12:24:32.016Z,8.10
2022-10-23T12:27:12.725Z,7.47
2022-10-23T12:29:51.369Z,8.90
2022-10-23T12:32:34.409Z,8.43
2022-10-23T12:35:10.654Z,6.07
2022-10-23T12:38:06.253Z,7.22
2022-10-23T12:40:33.577Z,8.77
2022-10-23T12:43:01.418Z,10.40
2022-10-23T12:45:28.642Z,7.22
2022-10-23T12:47:56.002Z,8.95
2022-10-23T12:50:26.492Z,10.98
2022-10-23T12:52:58.112Z,6.40
2022-10-23T12:55:28.788Z,10.98
2022-10-23T12:57:58.251Z,7.32
2022-10-23T13:00:25.565Z,6.93
2022-10-23T13:03:04.044Z,10.32
2022-10-23T13:05:32.611Z,11.27
2022-10-23T13:08:01.121Z,8.45
2022-10-23T13:10:41.709Z,8.93
2022-10-23T13:13:13.728Z,7.82
2022-10-23T13:15:43.439Z,9.00
2022-10-23T13:18:14.002Z,14.70
2022-10-23T13:20:59.545Z,8.40
2022-10-23T13:23:32.198Z,7.97
2022-10-23T13:26:21.373Z,11.63
2022-10-23T13:28:48.724Z,9.35
2022-10-23T13:31:16.048Z,9.25
2022-10-23T13:33:48.286Z,10.65
2022-10-23T13:36:16.540Z,8.98
2022-10-23T13:39:03.018Z,11.68
2022-10-23T13:41:39.292Z,11.93
2022-10-23T13:44:06.490Z,7.22
2022-10-23T13:46:33.799Z,10.32
2022-10-23T13:49:00.659Z,13.45
2022-10-23T13:51:29.253Z,9.73
2022-10-23T13:53:57.656Z,9.88
2022-10-23T13:56:26.721Z,7.60
2022-10-23T13:58:54.214Z,7.80
2022-10-23T14:01:27.530Z,11.63
2022-10-23T14:03:56.205Z,9.65
2022-10-23T14:06:23.469Z,8.27
2022-10-23T14:08:51.080Z,8.10
2022-10-23T14:11:19.329Z,6.30
2022-10-23T14:13:46.920Z,9.60
2022-10-23T14:16:15.438Z,8.38
2022-10-23T14:18:42.762Z,10.18
2022-10-23T14:21:12.376Z,9.85
2022-10-23T14:23:39.598Z,12.65
2022-10-23T14:26:09.131Z,7.30
2022-10-23T14:28:36.445Z,13.25
2022-10-23T14:31:08.532Z,9.45
2022-10-23T14:33:35.394Z,6.72
2022-10-23T14:36:02.879Z,8.20
2022-10-23T14:38:30.053Z,10.80
2022-10-23T14:40:57.200Z,8.20
2022-10-23T14:43:24.812Z,10.05
2022-10-23T14:45:52.001Z,7.88
2022-10-23T14:48:19.394Z,7.53
2022-10-23T14:50:48.490Z,9.90
2022-10-23T14:53:15.694Z,12.55
2022-10-23T14:55:42.939Z,7.35
2022-10-23T14:58:10.224Z,8.82
2022-10-23T15:00:37.009Z,13.27
2022-10-23T15:03:03.896Z,11.60
2022-10-23T15:05:31.083Z,16.92
2022-10-23T15:07:59.034Z,12.00
2022-10-23T15:10:26.315Z,6.70
2022-10-23T15:12:53.534Z,7.32
2022-10-23T15:15:22.417Z,10.18
2022-10-23T15:17:49.639Z,10.60
2022-10-23T15:20:16.944Z,10.15
2022-10-23T15:22:44.359Z,11.60
2022-10-23T15:25:16.867Z,15.15
2022-10-23T15:27:45.472Z,12.18
2022-10-23T15:30:12.776Z,13.00
2022-10-23T15:32:40.471Z,10.25
2022-10-23T15:35:07.946Z,10.00
2022-10-23T15:37:35.159Z,8.25
2022-10-23T15:40:02.777Z,8.18
2022-10-23T15:42:30.194Z,7.50
2022-10-23T15:44:57.371Z,8.27
2022-10-23T15:47:24.144Z,7.97
2022-10-23T15:49:51.062Z,7.20
2022-10-23T15:52:18.259Z,7.88
2022-10-23T15:54:45.525Z,11.25
2022-10-23T15:57:13.033Z,15.38
2022-10-23T15:59:39.890Z,10.90
2022-10-23T16:02:06.817Z,14.18
2022-10-23T16:04:35.321Z,8.10
2022-10-23T16:07:02.109Z,9.07
2022-10-23T16:09:29.825Z,10.52
2022-10-23T16:11:57.040Z,8.13
2022-10-23T16:14:23.925Z,9.50
2022-10-23T16:16:50.709Z,9.50
2022-10-23T16:19:18.682Z,7.55
2022-10-23T16:21:46.077Z,8.82
2022-10-23T16:24:13.315Z,8.75
2022-10-23T16:26:40.652Z,7.13
2022-10-23T16:29:09.470Z,7.43
2022-10-23T16:31:36.481Z,7.45
2022-10-23T16:34:05.345Z,9.63
2022-10-23T16:36:32.754Z,11.30
2022-10-23T16:39:19.790Z,10.45
2022-10-23T16:42:05.659Z,7.78
2022-10-23T16:44:56.979Z,10.02
2022-10-23T16:47:24.049Z,13.73
2022-10-23T16:49:51.304Z,12.43
2022-10-23T16:52:18.626Z,10.43
2022-10-23T16:54:45.866Z,9.57
2022-10-23T16:57:13.195Z,11.55
2022-10-23T16:59:39.992Z,10.43
2022-10-23T17:02:11.053Z,11.57
2022-10-23T17:04:38.479Z,9.57
2022-10-23T17:07:05.896Z,7.00
2022-10-23T17:09:33.254Z,15.45
2022-10-23T17:12:00.487Z,11.13
2022-10-23T17:14:30.529Z,8.75
2022-10-23T17:17:01.053Z,13.07
2022-10-23T17:19:45.896Z,9.18
2022-10-23T17:22:14.891Z,9.38
2022-10-23T17:24:44.170Z,14.68
2022-10-23T17:27:13.145Z,10.13
2022-10-23T17:29:40.001Z,9.52
2022-10-23T17:32:07.119Z,10.38
2022-10-23T17:34:34.356Z,16.77
2022-10-23T17:37:01.631Z,9.90
2022-10-23T17:39:29.522Z,8.82
2022-10-23T17:41:57.144Z,9.52
2022-10-23T17:44:24.472Z,11.88
2022-10-23T17:46:53.513Z,10.95
2022-10-23T17:49:20.869Z,9.25
2022-10-23T17:51:52.463Z,11.98
2022-10-23T17:54:19.809Z,9.23
2022-10-23T17:56:47.162Z,11.82
2022-10-23T17:59:15.985Z,10.82
2022-10-23T18:01:47.815Z,9.48
2022-10-23T18:04:15.955Z,10.38
2022-10-23T18:06:45.790Z,12.35
2022-10-23T18:09:13.413Z,10.23
2022-10-23T18:11:46.937Z,12.80
2022-10-23T18:14:15.138Z,8.40
2022-10-23T18:16:42.351Z,8.60
2022-10-23T18:19:10.482Z,12.00
2022-10-23T18:21:39.363Z,10.30
2022-10-23T18:24:06.907Z,8.05
2022-10-23T18:26:40.255Z,6.93
2022-10-23T18:29:08.502Z,11.07
2022-10-23T18:31:37.450Z,14.73
2022-10-23T18:34:25.357Z,10.43
2022-10-23T18:36:54.575Z,7.30
2022-10-23T18:39:24.115Z,15.32
2022-10-23T18:41:54.026Z,10.05
2022-10-23T18:44:22.324Z,9.20
2022-10-23T18:46:49.896Z,8.73
2022-10-23T18:49:18.458Z,9.77
2022-10-23T18:51:45.929Z,11.15
2022-10-23T18:54:14.788Z,9.73
2022-10-23T18:56:42.032Z,10.05
2022-10-23T18:59:12.560Z,7.30
2022-10-23T19:01:39.591Z,10.95
2022-10-23T19:04:07.054Z,6.93
2022-10-23T19:06:36.134Z,12.18
2022-10-23T19:09:06.622Z,6.97
2022-10-23T19:11:33.973Z,12.25
2022-10-23T19:14:00.828Z,8.60
2022-10-23T19:16:33.607Z,8.65
2022-10-23T19:19:06.798Z,8.65
2022-10-23T19:21:35.697Z,8.35
2022-10-23T19:24:06.788Z,8.82
2022-10-23T19:26:35.550Z,9.73
2022-10-23T19:29:03.064Z,8.52
2022-10-23T19:31:30.354Z,9.30
2022-10-23T19:33:57.560Z,6.88
2022-10-23T19:36:24.762Z,6.57
2022-10-23T19:38:52.182Z,7.43
2022-10-23T19:41:19.364Z,6.47
2022-10-23T19:43:46.272Z,7.00
2022-10-23T19:46:13.209Z,6.45
2022-10-23T19:48:44.938Z,9.35
2022-10-23T19:51:16.072Z,14.40
2022-10-23T19:53:43.320Z,9.98
2022-10-23T19:56:11.767Z,9.18
2022-10-23T19:58:39.380Z,8.13
2022-10-23T20:01:12.136Z,12.85
2022-10-23T20:03:40.844Z,7.00
2022-10-23T20:06:12.691Z,13.52
2022-10-23T20:08:40.454Z,10.35
2022-10-23T20:11:08.977Z,8.75
2022-10-23T20:13:36.502Z,8.60
2022-10-23T20:16:03.936Z,5.80
2022-10-23T20:18:31.197Z,5.80
2022-10-23T20:21:01.349Z,5.75
2022-10-23T20:23:28.348Z,6.68
2022-10-23T20:25:55.643Z,5.88
2022-10-23T20:28:22.536Z,9.43
2022-10-23T20:30:49.735Z,7.63
2022-10-23T20:33:16.948Z,7.05
2022-10-23T20:35:44.265Z,4.50
2022-10-23T20:38:11.086Z,6.50
2022-10-23T20:40:37.991Z,5.22
2022-10-23T20:43:05.500Z,5.13
2022-10-23T20:45:32.796Z,4.30
2022-10-23T20:47:59.991Z,8.55
2022-10-23T20:50:27.188Z,5.35
2022-10-23T20:52:54.404Z,5.18
2022-10-23T20:55:22.024Z,5.25
2022-10-23T20:57:48.796Z,5.80
2022-10-23T21:00:16.165Z,9.80
2022-10-23T21:02:47.014Z,3.63
2022-10-23T21:05:15.996Z,3.58
2022-10-23T21:07:43.183Z,6.38
2022-10-23T21:10:10.158Z,5.03
2022-10-23T21:12:37.401Z,7.47
2022-10-23T21:15:04.884Z,3.22
2022-10-23T21:17:35.889Z,4.32
2022-10-23T21:20:03.476Z,4.10
2022-10-23T21:22:30.593Z,3.47
2022-10-23T21:24:58.681Z,3.70
2022-10-23T21:27:25.832Z,5.93
2022-10-23T21:29:52.704Z,3.28
2022-10-23T21:32:21.013Z,5.43
2022-10-23T21:34:47.877Z,5.38
2022-10-23T21:37:15.103Z,4.47
2022-10-23T21:39:43.456Z,5.10
2022-10-23T21:42:11.773Z,3.17
2022-10-23T21:44:39.038Z,4.07
2022-10-23T21:47:06.136Z,7.80
2022-10-23T21:49:33.450Z,4.30
2022-10-23T21:52:00.708Z,4.97
2022-10-23T21:54:28.203Z,4.45
2022-10-23T21:56:55.093Z,6.82
2022-10-23T21:59:25.917Z,8.00
2022-10-23T22:01:55.310Z,5.05
2022-10-23T22:04:23.185Z,7.70
2022-10-23T22:06:50.192Z,3.85
2022-10-23T22:09:20.036Z,5.13
2022-10-23T22:11:52.237Z,6.85
2022-10-23T22:14:19.727Z,5.97
2022-10-23T22:16:47.272Z,4.25
2022-10-23T22:19:16.333Z,6.13
2022-10-23T22:21:43.455Z,4.47
2022-10-23T22:24:10.806Z,8.70
2022-10-23T22:26:44.237Z,6.10
2022-10-23T22:29:13.847Z,6.25
2022-10-23T22:31:44.192Z,6.93
2022-10-23T22:34:28.644Z,4.40
2022-10-23T22:37:09.223Z,6.00
2022-10-23T22:39:36.778Z,10.20
2022-10-23T22:42:04.027Z,8.55
2022-10-23T22:44:31.225Z,5.65
2022-10-23T22:46:58.016Z,12.63
2022-10-23T22:49:24.921Z,8.07
2022-10-23T22:51:51.885Z,8.00
2022-10-23T22:54:18.722Z,8.90
2022-10-23T22:56:45.917Z,5.65
2022-10-23T22:59:12.703Z,6.75
2022-10-23T23:01:42.677Z,7.97
2022-10-23T23:04:25.904Z,10.20
2022-10-23T23:06:59.709Z,6.28
2022-10-23T23:09:26.572Z,8.88
2022-10-23T23:11:53.793Z,7.65
2022-10-23T23:14:23.600Z,8.32
2022-10-23T23:16:52.845Z,7.05
2022-10-23T23:19:19.766Z,7.95
2022-10-23T23:21:47.045Z,7.70
2022-10-23T23:24:14.315Z,8.20
2022-10-23T23:26:41.555Z,5.35
2022-10-23T23:29:08.771Z,8.95
2022-10-23T23:31:35.956Z,7.87
2022-10-23T23:34:02.697Z,5.68
2022-10-23T23:36:29.568Z,11.25
2022-10-23T23:38:57.641Z,6.18
2022-10-23T23:41:26.182Z,11.63
2022-10-23T23:43:57.705Z,8.87
2022-10-23T23:46:25.219Z,9.65
2022-10-23T23:48:52.073Z,6.43
2022-10-23T23:51:21.739Z,6.70
2022-10-23T23:53:49.251Z,9.68
2022-10-23T23:56:16.154Z,8.93
2022-10-23T23:58:43.451Z,11.88
